Colorado Springs (COS/KCOS)

Map

Information

Location
Colorado Springs, CO
Local Time
16:31 / 4:31 pm
GMT Time
22:31 / 10:31 pm
Gates
22
No FAA reported delays
METAR KCOS 242154Z 09010KT 10SM SCT095 BKN160 BKN200 29/10 A3014 RMK AO2 SLP110 OCNL LTGICCG DSNT W CB DSNT W MOV E T02940100
TAF KCOS 242102Z 2421/2518 14010KT P6SM VCTS SCT090CB BKN200 FM250200 15009KT P6SM SCT100 BKN200 FM250400 34007KT P6SM SCT100 SCT200 FM250900 01006KT P6SM SCT120 BKN200